CDT,Max TemperatureF,Mean TemperatureF,Min TemperatureF,Max Dew PointF,MeanDew PointF,Min DewpointF,Max Humidity, Mean Humidity, Min Humidity, Max Sea Level PressureIn, Mean Sea Level PressureIn, Min Sea Level PressureIn, Max VisibilityMiles, Mean VisibilityMiles, Min VisibilityMiles, Max Wind SpeedMPH, Mean Wind SpeedMPH, Max Gust SpeedMPH,PrecipitationIn, CloudCover, Events, WindDirDegrees
2013-10-1,91,85,78,79,77,76,100,82,64,29.91,29.86,29.81,10,9,2,20,9,23,0.24,4,Rain-Thunderstorm,156
2013-10-2,93,84,75,78,75,73,100,78,56,29.92,29.88,29.84,10,10,10,17,7,22,0.00,1,,146
2013-10-3,92,84,75,75,73,71,100,76,52,29.92,29.88,29.84,10,10,10,16,8,20,0.00,1,,141
2013-10-4,93,84,75,76,74,72,94,75,56,29.90,29.87,29.84,10,10,10,18,7,24,T,2,Rain,144
2013-10-5,93,84,74,77,74,69,100,75,49,29.93,29.87,29.82,10,10,10,15,6,21,T,2,,144
2013-10-6,77,72,66,75,66,60,100,84,68,30.12,30.02,29.91,10,10,10,20,8,28,T,5,Rain,334
2013-10-7,86,72,57,58,51,37,78,49,19,30.16,30.10,30.05,10,10,10,16,7,21,0.00,0,,348
2013-10-8,86,72,58,62,58,53,90,65,40,30.08,30.03,29.97,10,10,10,13,4,17,0.00,0,,117
2013-10-9,89,76,63,66,64,61,100,71,41,30.01,29.97,29.93,10,10,10,18,6,24,0.00,1,,145
2013-10-10,90,79,68,75,69,65,90,70,50,29.99,29.94,29.88,10,10,10,20,8,23,0.00,2,,132
2013-10-11,92,85,78,79,76,75,97,79,60,29.90,29.86,29.81,10,10,10,22,12,26,0.01,4,Rain,145
2013-10-12,93,86,78,79,77,73,100,73,45,29.99,29.93,29.87,10,10,7,22,11,26,T,2,,145
2013-10-13,106,92,78,80,77,75,94,60,34,30.08,30.02,29.96,10,9,2,17,10,22,0.59,2,Rain,138
2013-10-14,89,81,73,79,74,71,100,80,59,30.04,29.98,29.91,10,10,10,17,7,22,0.00,1,,137
2013-10-15,92,85,78,80,75,72,100,81,61,29.96,29.91,29.86,10,10,10,17,8,20,0.00,1,,136
2013-10-16,93,83,73,75,73,67,100,72,44,29.98,29.91,29.85,10,10,10,16,6,20,0.00,2,,151
2013-10-17,75,71,66,72,66,63,90,82,74,30.06,29.99,29.94,10,10,10,16,10,21,T,8,Rain,331
2013-10-18,90,79,68,74,69,64,94,73,52,29.97,29.88,29.79,10,10,10,18,6,24,0.00,3,,199
2013-10-19,80,74,67,76,69,62,100,84,67,30.06,29.99,29.88,10,10,10,28,11,39,T,6,,359
2013-10-20,83,73,63,70,63,54,82,70,58,30.05,29.97,29.89,10,10,10,14,7,18,T,4,Rain,37
2013-10-21,90,81,71,79,74,71,100,85,70,29.92,29.87,29.83,10,10,8,21,4,29,0.29,6,Rain-Thunderstorm,114
2013-10-22,79,73,66,72,68,63,100,81,62,30.09,30.01,29.93,10,10,5,17,9,24,0.25,5,Rain,354
2013-10-23,82,70,57,63,57,52,87,65,42,30.15,30.10,30.06,10,10,10,17,7,24,0.00,0,,4
2013-10-24,84,72,59,63,59,57,90,68,45,30.19,30.14,30.10,10,10,10,15,5,20,0.00,1,,24
2013-10-25,86,75,64,66,63,61,93,71,48,30.23,30.18,30.15,10,10,10,22,8,26,0.00,2,,70
2013-10-26,87,78,69,66,64,61,84,63,42,30.16,30.11,30.06,10,10,10,20,8,25,0.00,1,,115
2013-10-27,88,78,67,68,66,64,93,70,46,30.07,30.02,29.98,10,10,10,16,5,18,0.00,1,,121
2013-10-28,88,79,69,72,69,67,90,73,55,30.06,30.00,29.96,10,10,10,21,11,25,0.00,1,,137
2013-10-29,88,82,75,75,72,69,94,75,55,30.07,30.02,29.96,10,10,9,21,12,26,0.03,3,Rain,136
2013-10-30,88,83,78,76,74,72,91,75,59,29.99,29.92,29.83,10,10,10,28,17,32,0.00,4,,151
2013-10-31,88,83,78,84,76,32,100,90,80,29.87,29.83,29.78,10,10,4,22,10,30,0.22,5,Rain,177